18 Jun 2019 04:09 UTC 2019169+04:09 UTC

Overview Datums Bench Marks Data Query Site Visit Daily QC Messages Attributes

079: SALT08

27° 52' 14" N   97° 31' 3" W
SALT08
City of Corpus Christi Salinity Monitoring Salinity

Station Information

SALT08
SALT08
more pictures
 
Station Name:SALT08
DNR ID:079
Location:27° 52' 14" N, 97° 31' 3" W

Water Level Forecasts

Latest Observations

Series Metric English Marine Observed at
Water Temperature 30.3 °C 86.5 °F 86.5 °F Jun 17 23:00 CDT
00h07m ago
Salinity 19.000 psu 19.000 psu 19.000 psu Jun 17 23:00 CDT
00h07m ago

Maps

SALT08
All Stations in Area
Entire Network
 

Recent Observations

Date/Time Water
Temp (°F)
Sal (psu)
Jun 17 23:00 CDT 86.5 19.000
Jun 17 22:00 CDT 87.1 19.000
Jun 17 21:00 CDT 88.0 18.900
Jun 17 20:00 CDT 88.0 18.900
Jun 17 19:00 CDT 87.8 18.900
Jun 17 18:00 CDT 87.6 18.800
Jun 17 17:00 CDT 87.1 18.800
Jun 17 16:00 CDT 86.5 18.900
Jun 17 15:00 CDT 85.3 19.000
Jun 17 14:00 CDT 84.6 19.000
Jun 17 13:00 CDT 82.6 19.100
Jun 17 12:00 CDT 82.2 19.100
Jun 17 11:00 CDT 82.0 19.100
Jun 17 10:00 CDT 81.9 19.100
Jun 17 09:00 CDT 81.7 19.200
Jun 17 08:00 CDT 81.9 19.100
Jun 17 07:00 CDT 81.9 19.000
Jun 17 06:00 CDT 82.0 19.000
Jun 17 05:00 CDT 82.6 19.200
Jun 17 04:00 CDT 83.1 19.200
Jun 17 03:00 CDT 83.5 19.200
Jun 17 02:00 CDT 83.5 19.200
Jun 17 01:00 CDT 83.8 19.100
Jun 17 00:00 CDT 84.7 19.100
Jun 16 23:00 CDT 85.8 19.100

Historical Data Availability